Karla A — TCCR8 — position and weather

sailwx.info

Track history (hours):
 
Tides and Currents Weather Stations Pressure Air Temp Water Temp Dewpoint Dewpoint Depression Visibility Wind Speed Wind Dir Waves Ship Positions

Karla A

Last reported at 2016-Feb-07 07:30 UTC. Time now 2016-Feb-09 20:41 UTC.
Position N 43°42' E 028°48'.

Length 155 m; draft 9.1 m.

Type: Ship (hazmat cat A). MMSI: 271000744.

Date/timePositionNaut miles runAvg speedWind from/ knotsBaromVisibWave heightAir tempDewpointWater temp
2016-Feb-07 07:30N 43°42' E 028°48'1212.7
2016-Feb-07 06:33N 43°54' E 028°48'1212.0
2016-Feb-07 05:33N 44°06' E 028°42'4 4.4
2016-Feb-07 04:33N 44°09' E 028°39'0 0.0
2016-Feb-07 03:32N 44°09' E 028°39'0 0.0
2016-Feb-07 02:22N 44°09' E 028°39'0 0.0
2016-Feb-07 01:28N 44°09' E 028°39'0 0.0
2016-Feb-07 00:27N 44°09' E 028°39'0 0.0
2016-Feb-06 23:24N 44°09' E 028°39'0 0.0
2016-Feb-06 22:29N 44°09' E 028°39'0 0.0
2016-Feb-06 21:26N 44°09' E 028°39'0 0.0
2016-Feb-06 20:31N 44°09' E 028°39'0 0.0
2016-Feb-06 19:25N 44°09' E 028°39'0 0.0
2016-Feb-06 18:33N 44°09' E 028°39'0 0.0
2016-Feb-06 17:30N 44°09' E 028°39'0 0.0
2016-Feb-06 16:33N 44°09' E 028°39'0 0.0
2016-Feb-06 15:32N 44°09' E 028°39'0 0.0
2016-Feb-06 14:23N 44°09' E 028°39'0 0.0
2016-Feb-06 13:31N 44°09' E 028°39'0 0.0
2016-Feb-06 12:25N 44°09' E 028°39'0 0.0
2016-Feb-06 11:33N 44°09' E 028°39'0 0.0
2016-Feb-06 10:30N 44°09' E 028°39'0 0.0
2016-Feb-06 09:33N 44°09' E 028°39'0 0.0
2016-Feb-06 08:33N 44°09' E 028°39'0 0.0
2016-Feb-06 07:30N 44°09' E 028°39'0 0.0
2016-Feb-06 06:32N 44°09' E 028°39'0 0.0
2016-Feb-06 05:33N 44°09' E 028°39'1 0.8
2016-Feb-06 04:33N 44°09' E 028°40'7 6.6
2016-Feb-06 03:33N 44°05' E 028°47'1413.6
2016-Feb-06 02:33N 44°07' E 029°06'  
2016-Feb-02 17:28N 41°01' E 028°60'8 9.2
2016-Feb-02 16:32N 40°53' E 028°55'11 0.3
2016-Jan-31 23:33N 40°56' E 028°40'0 0.5
2016-Jan-31 22:33N 40°56' E 028°40'3410.1
2016-Jan-31 19:11N 40°25' E 029°00'4 0.5
2016-Jan-31 11:09N 40°25' E 029°05'0 0.0
2016-Jan-31 07:26N 40°25' E 029°05'0 0.0
2016-Jan-31 05:32N 40°25' E 029°05'3 3.1
2016-Jan-31 04:32N 40°25' E 029°01'  
Track history (hours):
 
Tides and Currents Weather Stations Pressure Air Temp Water Temp Dewpoint Dewpoint Depression Visibility Wind Speed Wind Dir Waves Ship Positions

Karla A

Last reported at 2016-Feb-07 07:30 UTC. Time now 2016-Feb-09 20:41 UTC.
Position N 43°42' E 028°48'.

Length 155 m; draft 9.1 m.

Type: Ship (hazmat cat A). MMSI: 271000744.

Date/timePositionNaut miles runAvg speedWind from/ knotsBaromVisibWave heightAir tempDewpointWater temp
2016-Feb-07 07:30N 43°42' E 028°48'1212.7
2016-Feb-07 06:33N 43°54' E 028°48'1212.0
2016-Feb-07 05:33N 44°06' E 028°42'4 4.4
2016-Feb-07 04:33N 44°09' E 028°39'0 0.0
2016-Feb-07 03:32N 44°09' E 028°39'0 0.0
2016-Feb-07 02:22N 44°09' E 028°39'0 0.0
2016-Feb-07 01:28N 44°09' E 028°39'0 0.0
2016-Feb-07 00:27N 44°09' E 028°39'0 0.0
2016-Feb-06 23:24N 44°09' E 028°39'0 0.0
2016-Feb-06 22:29N 44°09' E 028°39'0 0.0
2016-Feb-06 21:26N 44°09' E 028°39'0 0.0
2016-Feb-06 20:31N 44°09' E 028°39'0 0.0
2016-Feb-06 19:25N 44°09' E 028°39'0 0.0
2016-Feb-06 18:33N 44°09' E 028°39'0 0.0
2016-Feb-06 17:30N 44°09' E 028°39'0 0.0
2016-Feb-06 16:33N 44°09' E 028°39'0 0.0
2016-Feb-06 15:32N 44°09' E 028°39'0 0.0
2016-Feb-06 14:23N 44°09' E 028°39'0 0.0
2016-Feb-06 13:31N 44°09' E 028°39'0 0.0
2016-Feb-06 12:25N 44°09' E 028°39'0 0.0
2016-Feb-06 11:33N 44°09' E 028°39'0 0.0
2016-Feb-06 10:30N 44°09' E 028°39'0 0.0
2016-Feb-06 09:33N 44°09' E 028°39'0 0.0
2016-Feb-06 08:33N 44°09' E 028°39'0 0.0
2016-Feb-06 07:30N 44°09' E 028°39'0 0.0
2016-Feb-06 06:32N 44°09' E 028°39'0 0.0
2016-Feb-06 05:33N 44°09' E 028°39'1 0.8
2016-Feb-06 04:33N 44°09' E 028°40'7 6.6
2016-Feb-06 03:33N 44°05' E 028°47'1413.6
2016-Feb-06 02:33N 44°07' E 029°06'  
2016-Feb-02 17:28N 41°01' E 028°60'8 9.2
2016-Feb-02 16:32N 40°53' E 028°55'11 0.3
2016-Jan-31 23:33N 40°56' E 028°40'0 0.5
2016-Jan-31 22:33N 40°56' E 028°40'3410.1
2016-Jan-31 19:11N 40°25' E 029°00'4 0.5
2016-Jan-31 11:09N 40°25' E 029°05'0 0.0
2016-Jan-31 07:26N 40°25' E 029°05'0 0.0
2016-Jan-31 05:32N 40°25' E 029°05'3 3.1
2016-Jan-31 04:32N 40°25' E 029°01'  

Dump ship's entire track history